sensor_id;sensor_type;location;lat;lon;timestamp;P1;durP1;ratioP1;P2;durP2;ratioP2
26574;SDS011;67165;50.256;10.978;2024-01-10T00:02:04;32.80;;;13.57;;
26574;SDS011;67165;50.256;10.978;2024-01-10T00:04:31;32.13;;;13.32;;
26574;SDS011;67165;50.256;10.978;2024-01-10T00:06:57;39.90;;;14.05;;
26574;SDS011;67165;50.256;10.978;2024-01-10T00:09:23;33.95;;;13.50;;
26574;SDS011;67165;50.256;10.978;2024-01-10T00:11:48;37.17;;;14.20;;
26574;SDS011;67165;50.256;10.978;2024-01-10T00:14:14;34.13;;;13.32;;
26574;SDS011;67165;50.256;10.978;2024-01-10T00:16:41;37.80;;;14.95;;
26574;SDS011;67165;50.256;10.978;2024-01-10T00:19:07;33.90;;;13.85;;
26574;SDS011;67165;50.256;10.978;2024-01-10T00:21:32;37.25;;;13.85;;
26574;SDS011;67165;50.256;10.978;2024-01-10T00:23:59;36.95;;;14.10;;
26574;SDS011;67165;50.256;10.978;2024-01-10T00:26:25;32.72;;;13.77;;
26574;SDS011;67165;50.256;10.978;2024-01-10T00:28:51;36.40;;;13.45;;
26574;SDS011;67165;50.256;10.978;2024-01-10T00:31:16;31.75;;;13.15;;
26574;SDS011;67165;50.256;10.978;2024-01-10T00:33:42;39.47;;;13.80;;
26574;SDS011;67165;50.256;10.978;2024-01-10T00:36:08;32.33;;;13.77;;
26574;SDS011;67165;50.256;10.978;2024-01-10T00:38:33;30.83;;;12.57;;
26574;SDS011;67165;50.256;10.978;2024-01-10T00:40:59;32.72;;;13.55;;
26574;SDS011;67165;50.256;10.978;2024-01-10T00:43:24;33.97;;;13.48;;
26574;SDS011;67165;50.256;10.978;2024-01-10T00:45:50;36.85;;;13.57;;
26574;SDS011;67165;50.256;10.978;2024-01-10T01:04:41;33.03;;;13.25;;
26574;SDS011;67165;50.256;10.978;2024-01-10T01:07:07;31.20;;;13.00;;
26574;SDS011;67165;50.256;10.978;2024-01-10T01:09:33;35.42;;;14.23;;
26574;SDS011;67165;50.256;10.978;2024-01-10T01:12:00;35.08;;;12.93;;
26574;SDS011;67165;50.256;10.978;2024-01-10T01:14:26;35.58;;;13.68;;
26574;SDS011;67165;50.256;10.978;2024-01-10T01:16:52;30.95;;;12.60;;
26574;SDS011;67165;50.256;10.978;2024-01-10T01:19:18;38.13;;;14.50;;
26574;SDS011;67165;50.256;10.978;2024-01-10T01:21:43;35.47;;;14.68;;
26574;SDS011;67165;50.256;10.978;2024-01-10T01:24:09;36.95;;;14.25;;
26574;SDS011;67165;50.256;10.978;2024-01-10T01:26:36;37.58;;;15.35;;
26574;SDS011;67165;50.256;10.978;2024-01-10T01:29:02;36.63;;;14.27;;
26574;SDS011;67165;50.256;10.978;2024-01-10T01:31:29;34.92;;;14.23;;
26574;SDS011;67165;50.256;10.978;2024-01-10T01:33:56;36.63;;;14.85;;
26574;SDS011;67165;50.256;10.978;2024-01-10T01:36:22;32.20;;;14.73;;
26574;SDS011;67165;50.256;10.978;2024-01-10T01:38:48;37.97;;;14.70;;
26574;SDS011;67165;50.256;10.978;2024-01-10T01:41:14;33.53;;;14.52;;
26574;SDS011;67165;50.256;10.978;2024-01-10T01:43:40;38.42;;;15.73;;
26574;SDS011;67165;50.256;10.978;2024-01-10T01:46:07;38.42;;;14.88;;
26574;SDS011;67165;50.256;10.978;2024-01-10T01:48:34;37.25;;;14.63;;
26574;SDS011;67165;50.256;10.978;2024-01-10T01:51:02;34.05;;;14.48;;
26574;SDS011;67165;50.256;10.978;2024-01-10T01:53:30;33.53;;;13.98;;
26574;SDS011;67165;50.256;10.978;2024-01-10T01:55:57;35.45;;;14.07;;
26574;SDS011;67165;50.256;10.978;2024-01-10T01:58:25;37.88;;;15.50;;
26574;SDS011;67165;50.256;10.978;2024-01-10T02:00:51;33.08;;;14.32;;
26574;SDS011;67165;50.256;10.978;2024-01-10T02:03:18;36.65;;;14.77;;
26574;SDS011;67165;50.256;10.978;2024-01-10T02:05:43;44.08;;;13.85;;
26574;SDS011;67165;50.256;10.978;2024-01-10T02:08:11;40.97;;;15.65;;
26574;SDS011;67165;50.256;10.978;2024-01-10T02:10:36;38.33;;;15.68;;
26574;SDS011;67165;50.256;10.978;2024-01-10T02:13:02;37.30;;;14.98;;
26574;SDS011;67165;50.256;10.978;2024-01-10T02:15:28;33.65;;;13.73;;
26574;SDS011;67165;50.256;10.978;2024-01-10T02:17:54;36.20;;;14.38;;
26574;SDS011;67165;50.256;10.978;2024-01-10T02:20:21;36.17;;;14.23;;
26574;SDS011;67165;50.256;10.978;2024-01-10T02:22:47;37.90;;;14.85;;
26574;SDS011;67165;50.256;10.978;2024-01-10T02:25:15;36.53;;;14.68;;
26574;SDS011;67165;50.256;10.978;2024-01-10T02:27:41;33.83;;;13.43;;
26574;SDS011;67165;50.256;10.978;2024-01-10T02:30:07;38.80;;;14.85;;
26574;SDS011;67165;50.256;10.978;2024-01-10T02:32:33;36.03;;;13.75;;
26574;SDS011;67165;50.256;10.978;2024-01-10T02:35:00;35.80;;;14.40;;
26574;SDS011;67165;50.256;10.978;2024-01-10T02:37:26;37.17;;;14.80;;
26574;SDS011;67165;50.256;10.978;2024-01-10T02:39:52;34.28;;;13.95;;
26574;SDS011;67165;50.256;10.978;2024-01-10T02:42:18;32.60;;;13.80;;
26574;SDS011;67165;50.256;10.978;2024-01-10T02:44:44;35.20;;;14.27;;
26574;SDS011;67165;50.256;10.978;2024-01-10T02:47:11;41.03;;;14.55;;
26574;SDS011;67165;50.256;10.978;2024-01-10T02:49:38;34.00;;;13.48;;
26574;SDS011;67165;50.256;10.978;2024-01-10T02:52:04;37.83;;;14.52;;
26574;SDS011;67165;50.256;10.978;2024-01-10T02:54:30;35.03;;;13.88;;
26574;SDS011;67165;50.256;10.978;2024-01-10T02:56:57;35.88;;;13.68;;
26574;SDS011;67165;50.256;10.978;2024-01-10T02:59:23;34.95;;;14.15;;
26574;SDS011;67165;50.256;10.978;2024-01-10T03:01:49;36.45;;;13.02;;
26574;SDS011;67165;50.256;10.978;2024-01-10T03:04:14;30.77;;;13.07;;
26574;SDS011;67165;50.256;10.978;2024-01-10T03:06:40;36.15;;;14.00;;
26574;SDS011;67165;50.256;10.978;2024-01-10T03:09:06;34.45;;;13.63;;
26574;SDS011;67165;50.256;10.978;2024-01-10T03:11:32;33.90;;;13.30;;
26574;SDS011;67165;50.256;10.978;2024-01-10T03:14:01;33.45;;;14.00;;
26574;SDS011;67165;50.256;10.978;2024-01-10T03:16:37;34.85;;;13.85;;
26574;SDS011;67165;50.256;10.978;2024-01-10T03:19:03;31.20;;;12.98;;
26574;SDS011;67165;50.256;10.978;2024-01-10T03:21:29;34.75;;;13.05;;
26574;SDS011;67165;50.256;10.978;2024-01-10T03:23:58;32.53;;;12.63;;
26574;SDS011;67165;50.256;10.978;2024-01-10T03:26:24;32.10;;;12.55;;
26574;SDS011;67165;50.256;10.978;2024-01-10T03:28:51;32.45;;;12.88;;
26574;SDS011;67165;50.256;10.978;2024-01-10T03:31:17;33.22;;;13.45;;
26574;SDS011;67165;50.256;10.978;2024-01-10T03:33:43;33.22;;;13.20;;
26574;SDS011;67165;50.256;10.978;2024-01-10T03:36:13;32.08;;;13.90;;
26574;SDS011;67165;50.256;10.978;2024-01-10T03:38:40;29.77;;;13.23;;
26574;SDS011;67165;50.256;10.978;2024-01-10T03:41:06;30.65;;;12.70;;
26574;SDS011;67165;50.256;10.978;2024-01-10T03:43:32;33.38;;;12.90;;
26574;SDS011;67165;50.256;10.978;2024-01-10T03:45:58;34.60;;;14.45;;
26574;SDS011;67165;50.256;10.978;2024-01-10T03:48:24;31.20;;;12.50;;
26574;SDS011;67165;50.256;10.978;2024-01-10T03:50:51;31.15;;;12.40;;
26574;SDS011;67165;50.256;10.978;2024-01-10T03:53:18;32.75;;;13.23;;
26574;SDS011;67165;50.256;10.978;2024-01-10T03:55:45;32.50;;;13.00;;
26574;SDS011;67165;50.256;10.978;2024-01-10T03:58:11;30.88;;;13.02;;
26574;SDS011;67165;50.256;10.978;2024-01-10T04:00:37;30.25;;;12.57;;
26574;SDS011;67165;50.256;10.978;2024-01-10T04:03:03;33.30;;;13.52;;
26574;SDS011;67165;50.256;10.978;2024-01-10T04:05:28;36.97;;;12.93;;
26574;SDS011;67165;50.256;10.978;2024-01-10T04:07:54;32.83;;;13.02;;
26574;SDS011;67165;50.256;10.978;2024-01-10T04:10:22;34.53;;;12.70;;
26574;SDS011;67165;50.256;10.978;2024-01-10T04:12:48;35.00;;;12.77;;
26574;SDS011;67165;50.256;10.978;2024-01-10T04:15:14;33.83;;;13.80;;
26574;SDS011;67165;50.256;10.978;2024-01-10T04:17:39;30.95;;;13.57;;
26574;SDS011;67165;50.256;10.978;2024-01-10T04:20:06;31.10;;;12.60;;
26574;SDS011;67165;50.256;10.978;2024-01-10T04:22:32;29.00;;;12.35;;
26574;SDS011;67165;50.256;10.978;2024-01-10T04:24:59;31.17;;;12.45;;
26574;SDS011;67165;50.256;10.978;2024-01-10T04:27:26;34.80;;;12.27;;
26574;SDS011;67165;50.256;10.978;2024-01-10T04:29:52;30.25;;;12.90;;
26574;SDS011;67165;50.256;10.978;2024-01-10T04:32:18;32.55;;;12.48;;
26574;SDS011;67165;50.256;10.978;2024-01-10T04:34:44;35.70;;;12.30;;
26574;SDS011;67165;50.256;10.978;2024-01-10T04:37:10;34.72;;;13.30;;
26574;SDS011;67165;50.256;10.978;2024-01-10T04:39:36;29.83;;;12.15;;
26574;SDS011;67165;50.256;10.978;2024-01-10T04:42:04;30.15;;;12.05;;
26574;SDS011;67165;50.256;10.978;2024-01-10T04:44:30;31.92;;;12.68;;
26574;SDS011;67165;50.256;10.978;2024-01-10T04:46:56;30.42;;;12.00;;
26574;SDS011;67165;50.256;10.978;2024-01-10T04:49:22;29.90;;;12.30;;
26574;SDS011;67165;50.256;10.978;2024-01-10T04:51:48;32.58;;;12.68;;
26574;SDS011;67165;50.256;10.978;2024-01-10T04:54:15;30.50;;;11.82;;
26574;SDS011;67165;50.256;10.978;2024-01-10T04:56:41;32.08;;;12.18;;
26574;SDS011;67165;50.256;10.978;2024-01-10T04:59:06;30.00;;;12.60;;
26574;SDS011;67165;50.256;10.978;2024-01-10T05:01:32;35.42;;;12.10;;
26574;SDS011;67165;50.256;10.978;2024-01-10T05:03:58;27.63;;;11.95;;
26574;SDS011;67165;50.256;10.978;2024-01-10T05:06:24;29.88;;;12.38;;
26574;SDS011;67165;50.256;10.978;2024-01-10T05:08:50;32.30;;;12.38;;
26574;SDS011;67165;50.256;10.978;2024-01-10T05:11:16;32.20;;;11.82;;
26574;SDS011;67165;50.256;10.978;2024-01-10T05:13:42;29.02;;;12.35;;
26574;SDS011;67165;50.256;10.978;2024-01-10T05:16:08;31.13;;;12.38;;
26574;SDS011;67165;50.256;10.978;2024-01-10T05:18:34;35.03;;;12.85;;
26574;SDS011;67165;50.256;10.978;2024-01-10T05:21:00;32.33;;;13.27;;
26574;SDS011;67165;50.256;10.978;2024-01-10T05:23:28;29.65;;;13.00;;
26574;SDS011;67165;50.256;10.978;2024-01-10T05:25:53;31.00;;;11.73;;
26574;SDS011;67165;50.256;10.978;2024-01-10T05:28:20;27.48;;;12.00;;
26574;SDS011;67165;50.256;10.978;2024-01-10T05:30:46;29.80;;;11.55;;
26574;SDS011;67165;50.256;10.978;2024-01-10T05:33:12;31.98;;;11.65;;
26574;SDS011;67165;50.256;10.978;2024-01-10T05:35:38;30.25;;;12.27;;
26574;SDS011;67165;50.256;10.978;2024-01-10T05:38:04;31.70;;;12.15;;
26574;SDS011;67165;50.256;10.978;2024-01-10T05:40:30;26.45;;;11.63;;
26574;SDS011;67165;50.256;10.978;2024-01-10T05:42:57;32.35;;;12.63;;
26574;SDS011;67165;50.256;10.978;2024-01-10T05:45:26;29.00;;;12.32;;
26574;SDS011;67165;50.256;10.978;2024-01-10T05:47:53;28.65;;;11.63;;
26574;SDS011;67165;50.256;10.978;2024-01-10T05:50:19;31.48;;;12.82;;
26574;SDS011;67165;50.256;10.978;2024-01-10T05:52:46;26.85;;;11.77;;
26574;SDS011;67165;50.256;10.978;2024-01-10T05:55:12;32.75;;;11.98;;
26574;SDS011;67165;50.256;10.978;2024-01-10T05:57:39;29.75;;;12.50;;
26574;SDS011;67165;50.256;10.978;2024-01-10T06:00:06;31.77;;;11.98;;
26574;SDS011;67165;50.256;10.978;2024-01-10T06:02:36;27.35;;;12.25;;
26574;SDS011;67165;50.256;10.978;2024-01-10T06:05:11;33.85;;;12.57;;
26574;SDS011;67165;50.256;10.978;2024-01-10T06:07:37;28.13;;;12.20;;
26574;SDS011;67165;50.256;10.978;2024-01-10T06:10:04;36.53;;;12.95;;
26574;SDS011;67165;50.256;10.978;2024-01-10T06:12:30;31.80;;;12.98;;
26574;SDS011;67165;50.256;10.978;2024-01-10T06:14:56;32.97;;;13.68;;
26574;SDS011;67165;50.256;10.978;2024-01-10T06:17:22;27.95;;;12.23;;
26574;SDS011;67165;50.256;10.978;2024-01-10T06:19:50;28.85;;;11.90;;
26574;SDS011;67165;50.256;10.978;2024-01-10T06:22:16;26.85;;;11.93;;
26574;SDS011;67165;50.256;10.978;2024-01-10T06:24:43;30.27;;;12.40;;
26574;SDS011;67165;50.256;10.978;2024-01-10T06:27:10;29.38;;;12.07;;
26574;SDS011;67165;50.256;10.978;2024-01-10T06:29:36;28.88;;;12.20;;
26574;SDS011;67165;50.256;10.978;2024-01-10T06:32:05;24.33;;;11.57;;
26574;SDS011;67165;50.256;10.978;2024-01-10T06:34:31;29.50;;;12.00;;
26574;SDS011;67165;50.256;10.978;2024-01-10T06:36:59;27.75;;;11.68;;
26574;SDS011;67165;50.256;10.978;2024-01-10T06:39:25;30.45;;;12.45;;
26574;SDS011;67165;50.256;10.978;2024-01-10T06:41:52;25.42;;;11.45;;
26574;SDS011;67165;50.256;10.978;2024-01-10T06:44:18;28.98;;;11.60;;
26574;SDS011;67165;50.256;10.978;2024-01-10T06:46:44;23.38;;;11.00;;
26574;SDS011;67165;50.256;10.978;2024-01-10T06:49:10;26.60;;;11.13;;
26574;SDS011;67165;50.256;10.978;2024-01-10T06:51:36;30.05;;;11.48;;
26574;SDS011;67165;50.256;10.978;2024-01-10T06:54:02;32.33;;;11.10;;
26574;SDS011;67165;50.256;10.978;2024-01-10T06:56:32;24.15;;;10.63;;
26574;SDS011;67165;50.256;10.978;2024-01-10T06:58:59;30.27;;;11.38;;
26574;SDS011;67165;50.256;10.978;2024-01-10T07:01:26;30.10;;;10.88;;
26574;SDS011;67165;50.256;10.978;2024-01-10T07:03:52;26.75;;;11.45;;
26574;SDS011;67165;50.256;10.978;2024-01-10T07:06:19;30.05;;;11.60;;
26574;SDS011;67165;50.256;10.978;2024-01-10T07:08:48;35.05;;;11.43;;
26574;SDS011;67165;50.256;10.978;2024-01-10T07:11:15;25.13;;;11.38;;
26574;SDS011;67165;50.256;10.978;2024-01-10T07:13:41;26.83;;;11.75;;
26574;SDS011;67165;50.256;10.978;2024-01-10T07:16:08;32.42;;;11.75;;
26574;SDS011;67165;50.256;10.978;2024-01-10T07:18:34;29.52;;;11.52;;
26574;SDS011;67165;50.256;10.978;2024-01-10T07:21:00;31.30;;;12.25;;
26574;SDS011;67165;50.256;10.978;2024-01-10T07:23:26;29.15;;;11.60;;
26574;SDS011;67165;50.256;10.978;2024-01-10T07:25:52;25.00;;;10.90;;
26574;SDS011;67165;50.256;10.978;2024-01-10T07:28:20;26.77;;;11.32;;
26574;SDS011;67165;50.256;10.978;2024-01-10T07:30:47;25.98;;;11.93;;
26574;SDS011;67165;50.256;10.978;2024-01-10T07:33:13;26.08;;;11.27;;
26574;SDS011;67165;50.256;10.978;2024-01-10T07:35:38;23.20;;;10.27;;
26574;SDS011;67165;50.256;10.978;2024-01-10T07:38:04;24.73;;;10.65;;
26574;SDS011;67165;50.256;10.978;2024-01-10T07:40:34;26.33;;;11.00;;
26574;SDS011;67165;50.256;10.978;2024-01-10T07:43:00;22.20;;;10.30;;
26574;SDS011;67165;50.256;10.978;2024-01-10T07:45:26;25.92;;;11.95;;
26574;SDS011;67165;50.256;10.978;2024-01-10T07:47:53;23.80;;;10.40;;
26574;SDS011;67165;50.256;10.978;2024-01-10T07:50:21;22.38;;;10.10;;
26574;SDS011;67165;50.256;10.978;2024-01-10T07:52:52;27.42;;;10.60;;
26574;SDS011;67165;50.256;10.978;2024-01-10T07:55:17;24.65;;;11.20;;
26574;SDS011;67165;50.256;10.978;2024-01-10T07:57:43;24.50;;;10.65;;
26574;SDS011;67165;50.256;10.978;2024-01-10T08:00:10;25.80;;;10.90;;
26574;SDS011;67165;50.256;10.978;2024-01-10T08:02:37;24.25;;;10.88;;
26574;SDS011;67165;50.256;10.978;2024-01-10T08:05:04;24.30;;;10.95;;
26574;SDS011;67165;50.256;10.978;2024-01-10T08:07:30;25.30;;;10.80;;
26574;SDS011;67165;50.256;10.978;2024-01-10T08:09:59;23.13;;;10.75;;
26574;SDS011;67165;50.256;10.978;2024-01-10T08:12:25;25.42;;;10.95;;
26574;SDS011;67165;50.256;10.978;2024-01-10T08:14:50;26.52;;;10.68;;
26574;SDS011;67165;50.256;10.978;2024-01-10T08:17:16;25.48;;;11.05;;
26574;SDS011;67165;50.256;10.978;2024-01-10T08:19:42;24.55;;;10.80;;
26574;SDS011;67165;50.256;10.978;2024-01-10T08:22:08;26.92;;;11.20;;
26574;SDS011;67165;50.256;10.978;2024-01-10T08:24:34;23.73;;;10.82;;
26574;SDS011;67165;50.256;10.978;2024-01-10T08:26:59;23.73;;;10.85;;
26574;SDS011;67165;50.256;10.978;2024-01-10T08:29:25;26.27;;;10.30;;
26574;SDS011;67165;50.256;10.978;2024-01-10T08:31:55;25.58;;;10.25;;
26574;SDS011;67165;50.256;10.978;2024-01-10T08:34:21;28.35;;;11.48;;
26574;SDS011;67165;50.256;10.978;2024-01-10T08:36:47;23.45;;;10.70;;
26574;SDS011;67165;50.256;10.978;2024-01-10T08:39:16;24.15;;;10.60;;
26574;SDS011;67165;50.256;10.978;2024-01-10T08:41:42;25.45;;;10.93;;
26574;SDS011;67165;50.256;10.978;2024-01-10T08:44:09;22.10;;;10.10;;
26574;SDS011;67165;50.256;10.978;2024-01-10T08:46:36;25.13;;;11.18;;
26574;SDS011;67165;50.256;10.978;2024-01-10T08:49:01;27.00;;;11.27;;
26574;SDS011;67165;50.256;10.978;2024-01-10T08:51:27;25.90;;;10.93;;
26574;SDS011;67165;50.256;10.978;2024-01-10T08:53:53;23.65;;;10.65;;
26574;SDS011;67165;50.256;10.978;2024-01-10T08:56:19;22.13;;;10.77;;
26574;SDS011;67165;50.256;10.978;2024-01-10T08:58:46;25.98;;;11.13;;
26574;SDS011;67165;50.256;10.978;2024-01-10T09:01:12;24.80;;;10.77;;
26574;SDS011;67165;50.256;10.978;2024-01-10T09:03:38;23.38;;;10.73;;
26574;SDS011;67165;50.256;10.978;2024-01-10T09:06:04;21.40;;;10.45;;
26574;SDS011;67165;50.256;10.978;2024-01-10T09:08:32;23.73;;;11.10;;
26574;SDS011;67165;50.256;10.978;2024-01-10T09:10:58;27.90;;;11.85;;
26574;SDS011;67165;50.256;10.978;2024-01-10T09:13:24;23.33;;;10.52;;
26574;SDS011;67165;50.256;10.978;2024-01-10T09:15:50;25.35;;;11.23;;
26574;SDS011;67165;50.256;10.978;2024-01-10T09:18:16;24.17;;;10.57;;
26574;SDS011;67165;50.256;10.978;2024-01-10T09:20:41;27.58;;;11.40;;
26574;SDS011;67165;50.256;10.978;2024-01-10T09:23:07;25.65;;;11.32;;
26574;SDS011;67165;50.256;10.978;2024-01-10T09:25:33;27.10;;;11.00;;
26574;SDS011;67165;50.256;10.978;2024-01-10T09:27:58;24.80;;;11.55;;
26574;SDS011;67165;50.256;10.978;2024-01-10T09:30:24;27.05;;;10.82;;
26574;SDS011;67165;50.256;10.978;2024-01-10T09:32:50;25.65;;;11.10;;
26574;SDS011;67165;50.256;10.978;2024-01-10T09:35:16;26.80;;;11.05;;
26574;SDS011;67165;50.256;10.978;2024-01-10T09:37:42;28.75;;;10.80;;
26574;SDS011;67165;50.256;10.978;2024-01-10T09:40:12;23.65;;;10.80;;
26574;SDS011;67165;50.256;10.978;2024-01-10T09:42:40;21.52;;;10.45;;
26574;SDS011;67165;50.256;10.978;2024-01-10T09:45:08;24.05;;;10.35;;
26574;SDS011;67165;50.256;10.978;2024-01-10T09:47:35;22.80;;;10.88;;
26574;SDS011;67165;50.256;10.978;2024-01-10T09:50:02;24.55;;;10.52;;
26574;SDS011;67165;50.256;10.978;2024-01-10T09:52:29;23.77;;;11.45;;
26574;SDS011;67165;50.256;10.978;2024-01-10T09:55:02;22.52;;;9.95;;
26574;SDS011;67165;50.256;10.978;2024-01-10T09:57:29;26.05;;;11.15;;
26574;SDS011;67165;50.256;10.978;2024-01-10T09:59:55;24.75;;;10.63;;
26574;SDS011;67165;50.256;10.978;2024-01-10T10:02:21;21.83;;;9.95;;
26574;SDS011;67165;50.256;10.978;2024-01-10T10:07:26;22.83;;;10.05;;
26574;SDS011;67165;50.256;10.978;2024-01-10T10:09:52;24.25;;;10.60;;
26574;SDS011;67165;50.256;10.978;2024-01-10T10:12:20;25.38;;;10.38;;
26574;SDS011;67165;50.256;10.978;2024-01-10T10:14:47;22.10;;;11.18;;
26574;SDS011;67165;50.256;10.978;2024-01-10T10:17:17;26.45;;;10.73;;
26574;SDS011;67165;50.256;10.978;2024-01-10T10:19:44;24.17;;;10.48;;
26574;SDS011;67165;50.256;10.978;2024-01-10T10:22:10;22.50;;;10.27;;
26574;SDS011;67165;50.256;10.978;2024-01-10T10:24:36;23.65;;;10.75;;
26574;SDS011;67165;50.256;10.978;2024-01-10T10:27:10;23.55;;;10.27;;
26574;SDS011;67165;50.256;10.978;2024-01-10T10:29:37;22.80;;;11.00;;
26574;SDS011;67165;50.256;10.978;2024-01-10T10:32:04;22.77;;;9.85;;
26574;SDS011;67165;50.256;10.978;2024-01-10T10:34:31;20.10;;;10.15;;
26574;SDS011;67165;50.256;10.978;2024-01-10T10:36:57;24.63;;;9.93;;
26574;SDS011;67165;50.256;10.978;2024-01-10T10:39:25;24.98;;;9.93;;
26574;SDS011;67165;50.256;10.978;2024-01-10T10:41:50;22.60;;;10.80;;
26574;SDS011;67165;50.256;10.978;2024-01-10T10:44:19;22.40;;;10.70;;
26574;SDS011;67165;50.256;10.978;2024-01-10T10:46:54;24.00;;;10.57;;
26574;SDS011;67165;50.256;10.978;2024-01-10T10:49:28;22.38;;;10.60;;
26574;SDS011;67165;50.256;10.978;2024-01-10T10:51:57;22.52;;;10.00;;
26574;SDS011;67165;50.256;10.978;2024-01-10T10:54:25;20.48;;;10.02;;
26574;SDS011;67165;50.256;10.978;2024-01-10T10:56:57;20.55;;;9.68;;
26574;SDS011;67165;50.256;10.978;2024-01-10T10:59:25;22.02;;;9.85;;
26574;SDS011;67165;50.256;10.978;2024-01-10T11:01:53;23.77;;;11.00;;
26574;SDS011;67165;50.256;10.978;2024-01-10T11:04:21;22.23;;;10.48;;
26574;SDS011;67165;50.256;10.978;2024-01-10T11:06:47;25.17;;;11.23;;
26574;SDS011;67165;50.256;10.978;2024-01-10T11:09:13;26.40;;;11.13;;
26574;SDS011;67165;50.256;10.978;2024-01-10T11:14:12;24.58;;;10.52;;
26574;SDS011;67165;50.256;10.978;2024-01-10T11:19:51;23.98;;;11.07;;
26574;SDS011;67165;50.256;10.978;2024-01-10T11:25:07;24.35;;;10.85;;
26574;SDS011;67165;50.256;10.978;2024-01-10T11:27:34;20.73;;;10.77;;
26574;SDS011;67165;50.256;10.978;2024-01-10T11:30:02;25.63;;;11.07;;
26574;SDS011;67165;50.256;10.978;2024-01-10T11:32:30;22.88;;;10.93;;
26574;SDS011;67165;50.256;10.978;2024-01-10T11:34:57;23.10;;;10.85;;
26574;SDS011;67165;50.256;10.978;2024-01-10T11:37:42;21.77;;;10.52;;
26574;SDS011;67165;50.256;10.978;2024-01-10T11:40:09;24.00;;;10.90;;
26574;SDS011;67165;50.256;10.978;2024-01-10T11:42:43;20.55;;;10.60;;
26574;SDS011;67165;50.256;10.978;2024-01-10T11:50:22;23.08;;;10.70;;
26574;SDS011;67165;50.256;10.978;2024-01-10T11:52:54;24.90;;;10.93;;
26574;SDS011;67165;50.256;10.978;2024-01-10T11:58:18;21.98;;;10.32;;
26574;SDS011;67165;50.256;10.978;2024-01-10T12:00:44;25.98;;;10.65;;
26574;SDS011;67165;50.256;10.978;2024-01-10T12:03:11;20.02;;;9.77;;
26574;SDS011;67165;50.256;10.978;2024-01-10T12:05:38;24.63;;;11.40;;
26574;SDS011;67165;50.256;10.978;2024-01-10T12:08:10;26.75;;;12.15;;
26574;SDS011;67165;50.256;10.978;2024-01-10T12:10:36;21.23;;;11.30;;
26574;SDS011;67165;50.256;10.978;2024-01-10T12:13:05;24.67;;;11.45;;
26574;SDS011;67165;50.256;10.978;2024-01-10T12:15:31;21.90;;;10.15;;
26574;SDS011;67165;50.256;10.978;2024-01-10T12:17:57;26.67;;;12.18;;
26574;SDS011;67165;50.256;10.978;2024-01-10T12:20:23;23.98;;;10.93;;
26574;SDS011;67165;50.256;10.978;2024-01-10T12:22:48;23.33;;;11.35;;
26574;SDS011;67165;50.256;10.978;2024-01-10T12:25:14;25.85;;;11.30;;
26574;SDS011;67165;50.256;10.978;2024-01-10T12:27:40;24.70;;;10.68;;
26574;SDS011;67165;50.256;10.978;2024-01-10T12:30:06;20.35;;;10.48;;
26574;SDS011;67165;50.256;10.978;2024-01-10T12:32:32;20.92;;;10.23;;
26574;SDS011;67165;50.256;10.978;2024-01-10T12:35:02;23.42;;;11.02;;
26574;SDS011;67165;50.256;10.978;2024-01-10T12:37:28;28.05;;;11.13;;
26574;SDS011;67165;50.256;10.978;2024-01-10T12:39:55;26.33;;;11.82;;
26574;SDS011;67165;50.256;10.978;2024-01-10T12:42:21;22.70;;;10.98;;
26574;SDS011;67165;50.256;10.978;2024-01-10T12:44:48;22.85;;;10.20;;
26574;SDS011;67165;50.256;10.978;2024-01-10T12:47:21;22.15;;;10.15;;
26574;SDS011;67165;50.256;10.978;2024-01-10T12:49:48;21.48;;;10.30;;
26574;SDS011;67165;50.256;10.978;2024-01-10T12:52:14;22.33;;;11.23;;
26574;SDS011;67165;50.256;10.978;2024-01-10T12:54:40;25.67;;;11.57;;
26574;SDS011;67165;50.256;10.978;2024-01-10T12:57:07;21.50;;;10.30;;
26574;SDS011;67165;50.256;10.978;2024-01-10T12:59:35;21.88;;;9.95;;
26574;SDS011;67165;50.256;10.978;2024-01-10T13:02:00;21.48;;;10.57;;
26574;SDS011;67165;50.256;10.978;2024-01-10T13:04:28;21.30;;;10.52;;
26574;SDS011;67165;50.256;10.978;2024-01-10T13:06:54;22.88;;;10.27;;
26574;SDS011;67165;50.256;10.978;2024-01-10T13:09:20;22.60;;;10.20;;
26574;SDS011;67165;50.256;10.978;2024-01-10T13:11:46;22.23;;;10.55;;
26574;SDS011;67165;50.256;10.978;2024-01-10T13:14:12;23.52;;;9.93;;
26574;SDS011;67165;50.256;10.978;2024-01-10T13:16:39;22.90;;;11.20;;
26574;SDS011;67165;50.256;10.978;2024-01-10T13:19:06;20.98;;;9.73;;
26574;SDS011;67165;50.256;10.978;2024-01-10T13:21:32;21.05;;;8.98;;
26574;SDS011;67165;50.256;10.978;2024-01-10T13:23:58;26.63;;;11.35;;
26574;SDS011;67165;50.256;10.978;2024-01-10T13:26:23;23.88;;;10.45;;
26574;SDS011;67165;50.256;10.978;2024-01-10T13:28:49;20.50;;;9.70;;
26574;SDS011;67165;50.256;10.978;2024-01-10T13:31:16;22.90;;;9.95;;
26574;SDS011;67165;50.256;10.978;2024-01-10T13:33:43;24.50;;;10.55;;
26574;SDS011;67165;50.256;10.978;2024-01-10T13:36:08;21.08;;;9.80;;
26574;SDS011;67165;50.256;10.978;2024-01-10T13:38:34;20.73;;;10.30;;
26574;SDS011;67165;50.256;10.978;2024-01-10T13:41:00;22.48;;;10.32;;
26574;SDS011;67165;50.256;10.978;2024-01-10T13:43:26;21.33;;;9.38;;
26574;SDS011;67165;50.256;10.978;2024-01-10T13:45:53;22.58;;;10.85;;
26574;SDS011;67165;50.256;10.978;2024-01-10T13:48:19;20.70;;;10.02;;
26574;SDS011;67165;50.256;10.978;2024-01-10T13:50:46;20.60;;;9.48;;
26574;SDS011;67165;50.256;10.978;2024-01-10T13:53:12;21.52;;;9.63;;
26574;SDS011;67165;50.256;10.978;2024-01-10T13:55:38;22.63;;;10.85;;
26574;SDS011;67165;50.256;10.978;2024-01-10T13:58:05;19.65;;;10.13;;
26574;SDS011;67165;50.256;10.978;2024-01-10T14:00:32;26.30;;;12.32;;
26574;SDS011;67165;50.256;10.978;2024-01-10T14:02:58;21.70;;;11.50;;
26574;SDS011;67165;50.256;10.978;2024-01-10T14:05:27;20.02;;;10.32;;
26574;SDS011;67165;50.256;10.978;2024-01-10T14:07:53;21.83;;;10.25;;
26574;SDS011;67165;50.256;10.978;2024-01-10T14:10:19;20.50;;;9.35;;
26574;SDS011;67165;50.256;10.978;2024-01-10T14:12:45;21.92;;;10.20;;
26574;SDS011;67165;50.256;10.978;2024-01-10T14:15:11;21.33;;;9.63;;
26574;SDS011;67165;50.256;10.978;2024-01-10T14:17:36;21.23;;;9.93;;
26574;SDS011;67165;50.256;10.978;2024-01-10T14:20:04;21.52;;;10.35;;
26574;SDS011;67165;50.256;10.978;2024-01-10T14:22:33;20.15;;;9.30;;
26574;SDS011;67165;50.256;10.978;2024-01-10T14:25:02;22.10;;;10.32;;
26574;SDS011;67165;50.256;10.978;2024-01-10T14:27:28;20.10;;;9.80;;
26574;SDS011;67165;50.256;10.978;2024-01-10T14:29:56;19.42;;;9.15;;
26574;SDS011;67165;50.256;10.978;2024-01-10T14:32:21;25.33;;;10.32;;
26574;SDS011;67165;50.256;10.978;2024-01-10T14:34:47;20.73;;;9.98;;
26574;SDS011;67165;50.256;10.978;2024-01-10T14:37:13;22.92;;;9.98;;
26574;SDS011;67165;50.256;10.978;2024-01-10T14:39:39;20.95;;;10.38;;
26574;SDS011;67165;50.256;10.978;2024-01-10T14:42:06;23.00;;;10.38;;
26574;SDS011;67165;50.256;10.978;2024-01-10T14:44:32;22.27;;;10.57;;